createdAt,value
2018-04-11T01:42:05.800Z,90.80
2018-04-11T01:44:33.731Z,90.80
2018-04-11T01:47:01.498Z,90.90
2018-04-11T01:49:29.358Z,90.70
2018-04-11T01:51:57.214Z,91.20
2018-04-11T01:54:25.057Z,90.90
2018-04-11T01:56:52.854Z,90.90
2018-04-11T01:59:20.606Z,90.90
2018-04-11T02:01:48.481Z,90.90
2018-04-11T02:04:16.394Z,90.80
2018-04-11T02:06:44.453Z,90.90
2018-04-11T02:09:13.415Z,90.70
2018-04-11T02:11:42.007Z,90.70
2018-04-11T02:14:10.077Z,90.60
2018-04-11T02:16:37.962Z,90.50
2018-04-11T02:19:05.821Z,90.40
2018-04-11T02:21:34.296Z,90.40
2018-04-11T02:24:02.031Z,90.40
2018-04-11T02:26:29.796Z,90.50
2018-04-11T02:28:57.714Z,90.50
2018-04-11T02:31:25.450Z,90.60
2018-04-11T02:33:53.290Z,90.60
2018-04-11T02:36:21.101Z,90.70
2018-04-11T02:38:49.057Z,90.70
2018-04-11T02:41:17.541Z,90.70
2018-04-11T02:43:45.392Z,90.70
2018-04-11T02:46:13.078Z,90.60
2018-04-11T02:48:41.779Z,90.50
2018-04-11T02:51:09.619Z,90.60
2018-04-11T02:53:39.200Z,90.60
2018-04-11T02:56:07.275Z,90.60
2018-04-11T02:58:35.109Z,90.70
2018-04-11T03:01:02.849Z,90.60
2018-04-11T03:03:30.680Z,90.60
2018-04-11T03:05:58.742Z,90.60
2018-04-11T03:08:27.821Z,90.50
2018-04-11T03:10:55.792Z,90.50
2018-04-11T03:13:23.782Z,90.40
2018-04-11T03:15:51.738Z,90.50
2018-04-11T03:18:19.556Z,90.50
2018-04-11T03:20:47.399Z,90.60
2018-04-11T03:23:16.681Z,90.90
2018-04-11T03:25:45.685Z,90.90
2018-04-11T03:28:14.559Z,91.00
2018-04-11T03:30:42.516Z,91.00
2018-04-11T03:33:10.321Z,90.80
2018-04-11T03:35:38.356Z,90.90
2018-04-11T03:38:06.304Z,90.90
2018-04-11T03:40:35.250Z,90.80
2018-04-11T03:43:03.887Z,90.80
2018-04-11T03:45:31.837Z,90.90
2018-04-11T03:47:59.834Z,90.90
2018-04-11T03:50:27.629Z,90.80
2018-04-11T03:52:55.617Z,91.00
2018-04-11T03:55:24.421Z,90.60
2018-04-11T03:57:55.079Z,90.60
2018-04-11T04:00:23.073Z,90.70
2018-04-11T04:02:51.730Z,90.50
2018-04-11T04:05:19.688Z,90.50
2018-04-11T04:07:47.525Z,90.60
2018-04-11T04:10:15.342Z,91.00
2018-04-11T04:12:43.533Z,90.70
2018-04-11T04:15:23.220Z,90.70
2018-04-11T04:18:02.955Z,90.60
2018-04-11T04:20:36.182Z,90.50
2018-04-11T04:23:04.153Z,90.40
2018-04-11T04:25:33.380Z,90.50
2018-04-11T04:28:01.998Z,90.60
2018-04-11T04:30:29.814Z,90.50
2018-04-11T04:32:58.100Z,90.50
2018-04-11T04:35:26.797Z,90.80
2018-04-11T04:37:55.185Z,91.00
2018-04-11T04:40:23.608Z,91.40
2018-04-11T04:42:51.341Z,91.10
2018-04-11T04:45:19.217Z,91.00
2018-04-11T04:47:47.153Z,91.10
2018-04-11T04:50:15.982Z,91.20
2018-04-11T04:52:43.909Z,91.10
2018-04-11T04:55:11.729Z,91.20
2018-04-11T04:57:39.592Z,91.10
2018-04-11T05:00:08.145Z,91.20
2018-04-11T05:02:36.228Z,91.10
2018-04-11T05:05:04.346Z,91.10
2018-04-11T05:07:33.268Z,91.10
2018-04-11T05:10:01.320Z,91.00
2018-04-11T05:12:30.766Z,90.90
2018-04-11T05:14:59.323Z,91.20
2018-04-11T05:17:27.803Z,91.20
2018-04-11T05:19:55.945Z,91.00
2018-04-11T05:22:24.918Z,91.00
2018-04-11T05:24:53.240Z,91.00
2018-04-11T05:27:22.106Z,91.00
2018-04-11T05:29:51.599Z,91.20
2018-04-11T05:32:19.974Z,91.10
2018-04-11T05:34:48.687Z,91.00
2018-04-11T05:37:17.444Z,91.00
2018-04-11T05:39:45.935Z,90.90
2018-04-11T05:42:14.499Z,91.10
2018-04-11T05:44:43.500Z,91.10
2018-04-11T05:47:14.218Z,91.20
2018-04-11T05:49:46.921Z,91.40
2018-04-11T05:52:15.710Z,91.30
2018-04-11T05:54:44.734Z,91.20
2018-04-11T05:57:13.001Z,91.20
2018-04-11T05:59:47.119Z,91.30
2018-04-11T06:02:21.736Z,91.20
2018-04-11T06:04:49.799Z,91.20
2018-04-11T06:07:18.088Z,91.20
2018-04-11T06:09:46.092Z,91.10
2018-04-11T06:12:14.083Z,91.10
2018-04-11T06:14:42.050Z,91.20
2018-04-11T06:17:10.681Z,90.90
2018-04-11T06:19:38.681Z,90.70
2018-04-11T06:22:06.657Z,90.90
2018-04-11T06:24:35.018Z,91.00
2018-04-11T06:27:03.849Z,90.80
2018-04-11T06:29:31.904Z,90.90
2018-04-11T06:31:59.866Z,90.80
2018-04-11T06:34:27.852Z,90.90
2018-04-11T06:36:56.855Z,91.00
2018-04-11T06:39:25.868Z,91.00
2018-04-11T06:41:55.394Z,91.00
2018-04-11T06:44:23.299Z,91.00
2018-04-11T06:46:51.169Z,91.10
2018-04-11T06:49:19.141Z,91.20
2018-04-11T06:51:48.348Z,91.30
2018-04-11T06:54:16.322Z,91.40
2018-04-11T06:56:44.306Z,91.60
2018-04-11T06:59:12.257Z,91.60
2018-04-11T07:01:40.196Z,91.60
2018-04-11T07:04:08.608Z,91.70
2018-04-11T07:06:41.691Z,91.70
2018-04-11T07:09:10.744Z,91.60
2018-04-11T07:11:40.059Z,91.60
2018-04-11T07:14:10.000Z,91.60
2018-04-11T07:16:39.177Z,91.50
2018-04-11T07:19:07.185Z,91.40
2018-04-11T07:21:35.163Z,91.50
2018-04-11T07:24:03.463Z,91.60
2018-04-11T07:26:31.418Z,91.60
2018-04-11T07:29:00.145Z,91.70
2018-04-11T07:31:30.040Z,91.50
2018-04-11T07:33:57.988Z,91.50
2018-04-11T07:36:26.715Z,91.50
2018-04-11T07:38:54.838Z,91.50
2018-04-11T07:41:23.908Z,91.50
2018-04-11T07:43:53.016Z,91.60
2018-04-11T07:46:20.851Z,91.60
2018-04-11T07:48:48.893Z,91.70
2018-04-11T07:51:17.169Z,91.70
2018-04-11T07:53:46.584Z,91.60
2018-04-11T07:56:14.440Z,91.60
2018-04-11T07:58:43.280Z,91.50
2018-04-11T08:01:12.117Z,91.60
2018-04-11T08:03:43.440Z,91.50
2018-04-11T08:06:11.406Z,91.50
2018-04-11T08:08:39.446Z,91.50
2018-04-11T08:11:09.037Z,91.50
2018-04-11T08:13:37.982Z,91.50
2018-04-11T08:16:05.865Z,91.40
2018-04-11T08:18:34.075Z,91.40
2018-04-11T08:21:02.222Z,91.40
2018-04-11T08:23:29.597Z,91.40
2018-04-11T08:25:58.436Z,91.30
2018-04-11T08:28:26.402Z,91.40
2018-04-11T08:30:55.812Z,91.40
2018-04-11T08:33:23.873Z,91.40
2018-04-11T08:35:52.231Z,91.50
2018-04-11T08:38:20.494Z,91.40
2018-04-11T08:40:48.539Z,91.40
2018-04-11T08:43:16.550Z,91.40
2018-04-11T08:45:45.485Z,91.40
2018-04-11T08:48:13.583Z,91.40
2018-04-11T08:50:41.642Z,91.30
2018-04-11T08:53:10.025Z,91.30
2018-04-11T08:55:38.438Z,90.80
2018-04-11T08:58:09.623Z,91.30
2018-04-11T09:00:38.584Z,91.00
2018-04-11T09:03:08.453Z,91.00
2018-04-11T09:05:36.453Z,91.10
2018-04-11T09:08:06.351Z,91.10
2018-04-11T09:10:36.236Z,91.30
2018-04-11T09:13:07.119Z,91.20
2018-04-11T09:15:35.192Z,91.10
2018-04-11T09:18:05.267Z,91.00
2018-04-11T09:20:33.454Z,90.80
2018-04-11T09:23:01.536Z,90.90
2018-04-11T09:25:29.485Z,90.80
2018-04-11T09:27:57.536Z,90.80
2018-04-11T09:30:26.133Z,90.80
2018-04-11T09:32:55.428Z,90.70
2018-04-11T09:35:23.721Z,90.80
2018-04-11T09:37:51.924Z,90.90
2018-04-11T09:40:20.037Z,90.70
2018-04-11T09:42:48.386Z,90.70
2018-04-11T09:45:17.122Z,90.50
2018-04-11T09:47:45.598Z,90.80
2018-04-11T09:50:14.663Z,90.80
2018-04-11T09:52:42.533Z,90.90
2018-04-11T09:55:10.497Z,90.80
2018-04-11T09:57:40.858Z,90.80
2018-04-11T10:00:18.817Z,90.60
2018-04-11T10:03:12.745Z,90.80
2018-04-11T10:05:41.752Z,90.80
2018-04-11T10:08:11.206Z,90.70
2018-04-11T10:10:39.101Z,90.80
2018-04-11T10:13:08.800Z,90.70
2018-04-11T10:15:36.796Z,90.50
2018-04-11T10:18:06.449Z,90.50
2018-04-11T10:20:34.407Z,90.60
2018-04-11T10:23:02.648Z,90.70
2018-04-11T10:25:34.964Z,90.70
2018-04-11T10:28:02.976Z,90.70
2018-04-11T10:30:31.171Z,90.70
2018-04-11T10:32:59.855Z,90.40
2018-04-11T10:35:27.768Z,90.40
2018-04-11T10:37:56.208Z,90.30
2018-04-11T10:40:24.221Z,90.40
2018-04-11T10:42:52.177Z,90.40
2018-04-11T10:45:20.253Z,90.40
2018-04-11T10:47:48.390Z,90.40
2018-04-11T10:50:17.080Z,89.10
2018-04-11T10:52:45.910Z,89.00
2018-04-11T10:55:13.961Z,89.00
2018-04-11T10:57:41.958Z,89.60
2018-04-11T11:00:09.924Z,89.10
2018-04-11T11:02:37.820Z,88.40
2018-04-11T11:05:06.131Z,89.00
2018-04-11T11:07:35.583Z,89.40
2018-04-11T11:10:03.694Z,88.30
2018-04-11T11:12:33.149Z,87.90
2018-04-11T11:15:01.114Z,87.90
2018-04-11T11:17:29.076Z,86.30
2018-04-11T11:20:02.062Z,86.50
2018-04-11T11:22:30.362Z,87.60
2018-04-11T11:24:58.691Z,86.70
2018-04-11T11:27:26.831Z,86.30
2018-04-11T11:29:56.843Z,89.00
2018-04-11T11:32:24.833Z,89.10
2018-04-11T11:34:52.882Z,88.00
2018-04-11T11:37:21.399Z,87.30
2018-04-11T11:39:50.220Z,87.80
2018-04-11T11:42:18.348Z,88.30
2018-04-11T11:44:47.505Z,87.50
2018-04-11T11:47:16.668Z,89.10
2018-04-11T11:49:44.785Z,89.60
2018-04-11T11:52:14.665Z,89.20
2018-04-11T11:54:42.722Z,89.20
2018-04-11T11:57:13.073Z,89.80
2018-04-11T11:59:48.916Z,88.80
2018-04-11T12:02:25.424Z,89.20
2018-04-11T12:05:01.883Z,86.80
2018-04-11T12:07:37.795Z,86.40
2018-04-11T12:10:11.153Z,86.30
2018-04-11T12:12:47.349Z,87.30
2018-04-11T12:15:15.343Z,87.90
2018-04-11T12:17:43.257Z,87.40
2018-04-11T12:20:10.975Z,86.70
2018-04-11T12:22:39.112Z,87.10
2018-04-11T12:25:08.063Z,86.50
2018-04-11T12:27:35.853Z,87.40
2018-04-11T12:30:04.790Z,85.90
2018-04-11T12:32:32.844Z,85.90
2018-04-11T12:35:00.769Z,85.50
2018-04-11T12:37:29.248Z,85.00
2018-04-11T12:39:58.340Z,85.00
2018-04-11T12:42:27.806Z,85.30
2018-04-11T12:44:55.621Z,85.30
2018-04-11T12:47:23.468Z,85.10
2018-04-11T12:49:51.388Z,84.70
2018-04-11T12:52:19.410Z,85.70
2018-04-11T12:54:48.463Z,85.00
2018-04-11T12:57:17.148Z,85.00
2018-04-11T12:59:45.936Z,84.20
2018-04-11T13:02:13.858Z,83.40
2018-04-11T13:04:42.724Z,83.90
2018-04-11T13:07:11.271Z,83.80
2018-04-11T13:09:39.039Z,81.90
2018-04-11T13:12:07.061Z,84.10
2018-04-11T13:14:36.854Z,84.30
2018-04-11T13:17:07.275Z,84.30
2018-04-11T13:19:35.629Z,82.60
2018-04-11T13:22:03.408Z,83.10
2018-04-11T13:24:32.213Z,84.40
2018-04-11T13:27:00.013Z,81.60
2018-04-11T13:29:27.806Z,83.50
2018-04-11T13:31:55.616Z,81.50
2018-04-11T13:34:23.436Z,83.40
2018-04-11T13:36:51.435Z,82.40
2018-04-11T13:39:19.232Z,78.90
2018-04-11T13:41:46.989Z,81.00
2018-04-11T13:44:16.020Z,82.30
2018-04-11T13:46:44.931Z,81.80
2018-04-11T13:49:13.719Z,81.70
2018-04-11T13:51:41.977Z,80.50
2018-04-11T13:54:10.320Z,79.10
2018-04-11T13:56:38.781Z,82.10
2018-04-11T13:59:07.177Z,79.60
2018-04-11T14:01:35.224Z,81.30
2018-04-11T14:04:04.420Z,78.50
2018-04-11T14:06:32.841Z,78.60
2018-04-11T14:09:01.138Z,80.70
2018-04-11T14:11:29.558Z,79.90
2018-04-11T14:13:59.085Z,78.70
2018-04-11T14:16:27.121Z,78.60
2018-04-11T14:18:58.216Z,79.00
2018-04-11T14:21:33.095Z,79.60
2018-04-11T14:24:10.548Z,77.10
2018-04-11T14:26:47.363Z,77.90
2018-04-11T14:29:23.295Z,77.90
2018-04-11T14:31:56.951Z,74.10
2018-04-11T14:34:25.937Z,79.50
2018-04-11T14:36:53.716Z,77.70
2018-04-11T14:39:21.397Z,80.40
2018-04-11T14:41:49.577Z,79.20
2018-04-11T14:44:18.250Z,81.30
2018-04-11T14:46:46.274Z,78.30
2018-04-11T14:49:15.141Z,76.40
2018-04-11T14:51:43.113Z,76.40
2018-04-11T14:54:11.153Z,77.10
2018-04-11T14:56:40.068Z,75.80
2018-04-11T14:59:09.240Z,72.60
2018-04-11T15:01:36.941Z,72.60
2018-04-11T15:04:04.678Z,72.20
2018-04-11T15:06:33.031Z,73.80
2018-04-11T15:09:01.612Z,72.50
2018-04-11T15:11:29.590Z,71.60
2018-04-11T15:13:57.492Z,73.20
2018-04-11T15:16:25.415Z,74.70
2018-04-11T15:18:53.866Z,75.20
2018-04-11T15:21:21.905Z,74.50
2018-04-11T15:23:49.972Z,75.40
2018-04-11T15:26:18.772Z,75.80
2018-04-11T15:28:46.675Z,75.80
2018-04-11T15:31:15.477Z,78.00
2018-04-11T15:33:43.361Z,77.80
2018-04-11T15:36:11.531Z,78.70
2018-04-11T15:38:39.246Z,76.90
2018-04-11T15:41:07.947Z,74.10
2018-04-11T15:43:37.432Z,65.30
2018-04-11T15:49:01.979Z,63.30
2018-04-11T15:51:29.767Z,66.40
2018-04-11T15:53:58.259Z,66.90
2018-04-11T15:56:26.061Z,66.90
2018-04-11T15:58:54.602Z,65.80
2018-04-11T16:01:22.372Z,67.90
2018-04-11T16:03:50.487Z,70.00
2018-04-11T16:06:18.467Z,71.70
2018-04-11T16:08:47.020Z,73.30
2018-04-11T16:11:15.731Z,73.90
2018-04-11T16:13:43.977Z,73.90
2018-04-11T16:16:11.985Z,73.80
2018-04-11T16:18:40.184Z,72.30
2018-04-11T16:21:08.388Z,73.50
2018-04-11T16:23:36.418Z,72.10
2018-04-11T16:26:04.617Z,74.80
2018-04-11T16:28:32.821Z,74.80
2018-04-11T16:31:01.750Z,75.20
2018-04-11T16:33:30.309Z,74.20
2018-04-11T16:35:58.366Z,75.60
2018-04-11T16:38:27.114Z,76.00
2018-04-11T16:40:55.002Z,76.00
2018-04-11T16:43:23.017Z,76.20
2018-04-11T16:45:51.713Z,74.50
2018-04-11T16:48:20.805Z,75.80
2018-04-11T16:50:49.001Z,75.60
2018-04-11T16:53:17.131Z,75.60
2018-04-11T16:55:46.964Z,74.80
2018-04-11T16:58:15.994Z,75.50
2018-04-11T17:00:44.996Z,76.30
2018-04-11T17:03:13.595Z,76.30
2018-04-11T17:05:42.635Z,76.80
2018-04-11T17:08:12.326Z,78.20
2018-04-11T17:10:40.353Z,78.20
2018-04-11T17:13:09.024Z,77.30
2018-04-11T17:15:37.123Z,78.10
2018-04-11T17:18:06.743Z,79.30
2018-04-11T17:20:46.431Z,79.20
2018-04-11T17:23:29.420Z,79.90
2018-04-11T17:26:09.365Z,80.30
2018-04-11T17:28:48.938Z,78.00
2018-04-11T17:31:21.829Z,79.10
2018-04-11T17:33:50.878Z,80.10
2018-04-11T17:36:20.301Z,80.60
2018-04-11T17:38:48.322Z,81.40
2018-04-11T17:41:17.942Z,81.00
2018-04-11T17:43:45.963Z,80.90
2018-04-11T17:46:15.387Z,81.30
2018-04-11T17:48:45.897Z,80.20
2018-04-11T17:51:16.176Z,81.10
2018-04-11T17:53:44.517Z,81.70
2018-04-11T17:56:13.282Z,82.60
2018-04-11T17:58:41.433Z,82.10
2018-04-11T18:01:11.674Z,82.30
2018-04-11T18:03:42.789Z,82.20
2018-04-11T18:06:10.665Z,82.70
2018-04-11T18:08:39.399Z,82.80
2018-04-11T18:11:08.433Z,82.70
2018-04-11T18:13:36.146Z,83.00
2018-04-11T18:16:04.473Z,83.40
2018-04-11T18:18:33.098Z,84.00
2018-04-11T18:21:00.927Z,84.00
2018-04-11T18:23:29.601Z,84.80
2018-04-11T18:25:57.355Z,84.10
2018-04-11T18:28:25.100Z,84.50
2018-04-11T18:30:53.118Z,84.90
2018-04-11T18:33:21.977Z,85.10
2018-04-11T18:35:50.029Z,85.50
2018-04-11T18:38:18.507Z,85.80
2018-04-11T18:40:47.357Z,85.50
2018-04-11T18:43:16.608Z,85.50
2018-04-11T18:45:46.013Z,85.50
2018-04-11T18:48:15.385Z,85.50
2018-04-11T18:50:43.449Z,85.80
2018-04-11T18:53:11.719Z,86.10
2018-04-11T18:55:41.618Z,86.30
2018-04-11T18:58:10.329Z,86.50
2018-04-11T19:00:40.061Z,87.00
2018-04-11T19:03:10.145Z,87.20
2018-04-11T19:05:42.098Z,87.20
2018-04-11T19:08:11.038Z,87.40
2018-04-11T19:10:40.106Z,87.50
2018-04-11T19:13:08.595Z,87.70
2018-04-11T19:15:36.676Z,87.90
2018-04-11T19:18:05.738Z,88.10
2018-04-11T19:20:34.807Z,88.00
2018-04-11T19:23:03.940Z,88.00
2018-04-11T19:25:34.349Z,88.00
2018-04-11T19:28:03.595Z,88.10
2018-04-11T19:30:32.370Z,88.20
2018-04-11T19:33:00.552Z,88.30
2018-04-11T19:35:29.272Z,88.30
2018-04-11T19:37:57.218Z,88.40
2018-04-11T19:40:25.478Z,88.20
2018-04-11T19:42:54.545Z,88.00
2018-04-11T19:45:23.672Z,88.00
2018-04-11T19:47:54.620Z,87.90
2018-04-11T19:50:23.036Z,88.00
2018-04-11T19:52:51.408Z,87.90
2018-04-11T19:55:21.732Z,88.20
2018-04-11T19:57:50.567Z,88.30
2018-04-11T20:00:20.915Z,88.00
2018-04-11T20:02:49.009Z,87.90
2018-04-11T20:05:18.243Z,87.80
2018-04-11T20:07:47.075Z,87.80
2018-04-11T20:10:15.635Z,87.90
2018-04-11T20:12:44.436Z,88.00
2018-04-11T20:15:13.194Z,88.00
2018-04-11T20:17:41.143Z,87.80
2018-04-11T20:20:09.482Z,88.00
2018-04-11T20:22:38.040Z,88.00
2018-04-11T20:25:07.150Z,88.10
2018-04-11T20:27:35.806Z,88.00
2018-04-11T20:30:04.164Z,88.30
2018-04-11T20:32:33.456Z,88.10
2018-04-11T20:35:03.263Z,88.20
2018-04-11T20:37:31.458Z,88.10
2018-04-11T20:40:01.191Z,88.10
2018-04-11T20:42:30.901Z,88.00
2018-04-11T20:45:00.034Z,88.10
2018-04-11T20:47:28.177Z,88.00
2018-04-11T20:49:56.949Z,88.10
2018-04-11T20:52:25.394Z,88.30
2018-04-11T20:54:53.635Z,88.30
2018-04-11T20:57:23.133Z,88.30
2018-04-11T20:59:51.759Z,88.50
2018-04-11T21:02:20.703Z,88.40
2018-04-11T21:04:49.428Z,88.20
2018-04-11T21:07:17.251Z,88.20
2018-04-11T21:09:45.963Z,88.30
2018-04-11T21:12:15.855Z,88.50
2018-04-11T21:14:43.796Z,88.70
2018-04-11T21:17:11.548Z,88.60
2018-04-11T21:19:40.249Z,88.90
2018-04-11T21:22:08.166Z,88.60
2018-04-11T21:24:35.908Z,88.60
2018-04-11T21:27:03.678Z,88.50
2018-04-11T21:29:31.465Z,88.50
2018-04-11T21:31:59.724Z,88.40
2018-04-11T21:34:27.705Z,88.50
2018-04-11T21:36:55.741Z,88.60
2018-04-11T21:39:23.755Z,88.60
2018-04-11T21:41:51.544Z,88.30
2018-04-11T21:44:20.074Z,88.40
2018-04-11T21:46:47.889Z,88.40
2018-04-11T21:49:16.215Z,88.60
2018-04-11T21:51:43.976Z,88.40
2018-04-11T21:54:12.043Z,88.90
2018-04-11T21:56:40.739Z,88.60
2018-04-11T21:59:08.756Z,88.60
2018-04-11T22:01:36.654Z,88.70
2018-04-11T22:04:05.052Z,88.80
2018-04-11T22:06:33.223Z,88.90
2018-04-11T22:09:01.082Z,88.80
2018-04-11T22:11:29.340Z,88.80
2018-04-11T22:13:58.121Z,88.80
2018-04-11T22:16:26.573Z,88.80
2018-04-11T22:18:56.170Z,88.80
2018-04-11T22:21:25.568Z,88.80
2018-04-11T22:23:54.349Z,88.80
2018-04-11T22:26:22.573Z,89.20
2018-04-11T22:28:53.993Z,89.20
2018-04-11T22:31:22.011Z,89.20
2018-04-11T22:33:51.733Z,89.30
2018-04-11T22:36:20.119Z,89.60
2018-04-11T22:38:50.150Z,89.40
2018-04-11T22:41:19.244Z,89.40
2018-04-11T22:43:46.974Z,89.50
2018-04-11T22:46:14.717Z,89.10
2018-04-11T22:48:43.657Z,89.90
2018-04-11T22:51:11.593Z,89.30
2018-04-11T22:53:40.511Z,89.30
2018-04-11T22:56:08.384Z,89.30
2018-04-11T22:58:36.456Z,89.50
2018-04-11T23:01:05.747Z,89.60
2018-04-11T23:03:35.355Z,89.50
2018-04-11T23:06:03.037Z,89.40
2018-04-11T23:08:32.435Z,89.40
2018-04-11T23:11:01.475Z,89.50
2018-04-11T23:13:30.381Z,89.50
2018-04-11T23:15:58.182Z,89.60
2018-04-11T23:18:26.845Z,90.20
2018-04-11T23:20:54.850Z,90.20
2018-04-11T23:23:22.667Z,90.20
2018-04-11T23:25:50.627Z,90.10
2018-04-11T23:28:18.469Z,90.20
2018-04-11T23:30:47.314Z,90.20
2018-04-11T23:33:15.245Z,90.20
2018-04-11T23:35:43.841Z,90.20
2018-04-11T23:38:12.992Z,90.30
2018-04-11T23:40:40.787Z,90.30
2018-04-11T23:43:08.786Z,90.30
2018-04-11T23:45:36.524Z,90.20
2018-04-11T23:48:04.437Z,90.30
2018-04-11T23:50:32.556Z,90.30
2018-04-11T23:53:00.280Z,90.20
2018-04-11T23:55:28.122Z,90.40
2018-04-11T23:57:55.801Z,90.40
